Time;durP1;ratioP1;P1;durP2;ratioP2;P2;SDS_P1;SDS_P2;PMS_P1;PMS_P2;Temp;Humidity;BMP_temperature;BMP_pressure;BME280_temperature;BME280_humidity;BME280_pressure;Samples;Min_cycle;Max_cycle;Signal;HPM_P1;HPM_P2
2022/11/08 00:01:44;;;;;;;7.53;6.90;;;;;;;;;;5036716;28;20612;-55
2022/11/08 00:04:10;;;;;;;7.50;6.80;;;;;;;;;;5036745;28;20688;-54
2022/11/08 00:14:47;;;;;;;6.97;6.37;;;;;;;;;;5051800;28;20661;-54
2022/11/08 00:17:13;;;;;;;7.30;5.90;;;;;;;;;;5042624;28;20611;-54
2022/11/08 00:19:39;;;;;;;7.20;6.30;;;;;;;;;;5040008;28;20259;-55
2022/11/08 00:22:04;;;;;;;6.93;5.60;;;;;;;;;;5038797;28;20645;-55
2022/11/08 00:24:29;;;;;;;7.70;6.60;;;;;;;;;;5038449;28;20210;-55
2022/11/08 00:26:54;;;;;;;8.90;6.57;;;;;;;;;;5040179;28;20166;-55
2022/11/08 00:29:19;;;;;;;6.93;6.23;;;;;;;;;;5049934;28;20904;-53
2022/11/08 00:31:44;;;;;;;6.47;5.88;;;;;;;;;;5037690;28;20188;-53
2022/11/08 00:34:10;;;;;;;6.27;5.83;;;;;;;;;;5031608;28;20669;-53
2022/11/08 00:36:35;;;;;;;7.07;6.43;;;;;;;;;;5032882;28;20193;-54
2022/11/08 00:39:00;;;;;;;6.90;6.20;;;;;;;;;;5037222;28;20178;-54
2022/11/08 00:41:25;;;;;;;7.07;6.13;;;;;;;;;;5050030;28;20196;-54
2022/11/08 00:43:50;;;;;;;7.90;6.60;;;;;;;;;;5045003;28;20256;-55
2022/11/08 00:46:16;;;;;;;8.50;6.30;;;;;;;;;;5039283;28;20679;-54
2022/11/08 00:48:41;;;;;;;6.53;5.97;;;;;;;;;;5044014;28;20188;-53
2022/11/08 00:51:06;;;;;;;6.83;6.23;;;;;;;;;;5044618;28;20184;-53
2022/11/08 00:53:32;;;;;;;7.77;6.13;;;;;;;;;;5042324;28;20225;-54
2022/11/08 00:56:04;;;;;;;7.10;6.40;;;;;;;;;;5036194;28;20651;-54
2022/11/08 00:58:30;;;;;;;6.90;6.30;;;;;;;;;;5029497;28;20169;-54
2022/11/08 01:00:55;;;;;;;8.20;6.73;;;;;;;;;;5040472;28;21383;-54
2022/11/08 01:03:21;;;;;;;7.20;6.50;;;;;;;;;;5047040;28;20193;-56
2022/11/08 01:05:47;;;;;;;6.60;6.10;;;;;;;;;;5041125;28;20242;-54
2022/11/08 01:08:13;;;;;;;6.47;5.77;;;;;;;;;;5044909;28;20187;-54
2022/11/08 01:10:42;;;;;;;8.50;7.07;;;;;;;;;;5034399;28;20623;-55
2022/11/08 01:13:07;;;;;;;9.90;8.90;;;;;;;;;;5043903;28;20204;-55
2022/11/08 01:15:36;;;;;;;7.70;6.60;;;;;;;;;;5050833;28;20701;-54
2022/11/08 01:18:02;;;;;;;7.87;6.23;;;;;;;;;;5036603;28;20268;-54
2022/11/08 01:20:27;;;;;;;6.67;5.73;;;;;;;;;;5039300;28;20702;-55
2022/11/08 01:22:52;;;;;;;6.63;6.03;;;;;;;;;;5033877;28;20631;-55
2022/11/08 01:25:17;;;;;;;6.80;6.13;;;;;;;;;;5031825;28;20169;-55
2022/11/08 01:27:42;;;;;;;6.17;5.47;;;;;;;;;;5032066;28;20200;-55
2022/11/08 01:30:08;;;;;;;6.27;5.67;;;;;;;;;;5031766;28;20174;-55
2022/11/08 01:32:33;;;;;;;6.30;5.77;;;;;;;;;;5050129;28;20215;-55
2022/11/08 01:34:58;;;;;;;8.60;6.30;;;;;;;;;;5031573;28;20184;-55
2022/11/08 01:37:23;;;;;;;8.47;6.47;;;;;;;;;;5030527;28;20178;-54
2022/11/08 01:39:49;;;;;;;6.97;5.80;;;;;;;;;;5039318;28;20183;-55
2022/11/08 01:42:14;;;;;;;6.40;5.90;;;;;;;;;;5066136;28;20245;-54
2022/11/08 01:45:17;;;;;;;8.53;6.50;;;;;;;;;;5049624;28;20181;-54
2022/11/08 01:47:42;;;;;;;7.80;7.00;;;;;;;;;;5010564;28;20302;-54
2022/11/08 01:50:08;;;;;;;6.67;6.07;;;;;;;;;;5008699;28;20618;-54
2022/11/08 01:52:44;;;;;;;7.47;6.80;;;;;;;;;;5019555;28;20242;-55
2022/11/08 01:55:15;;;;;;;8.87;8.00;;;;;;;;;;5032156;28;20211;-53
2022/11/08 01:57:51;;;;;;;8.00;7.20;;;;;;;;;;5032963;28;20703;-54
2022/11/08 02:00:16;;;;;;;10.53;7.67;;;;;;;;;;5040615;28;20645;-54
2022/11/08 02:02:42;;;;;;;8.90;8.10;;;;;;;;;;5047055;28;20683;-54
2022/11/08 02:05:23;;;;;;;9.50;8.20;;;;;;;;;;5032111;28;20684;-54
2022/11/08 02:07:49;;;;;;;9.50;8.60;;;;;;;;;;5041469;28;20619;-54
2022/11/08 02:10:14;;;;;;;9.43;8.50;;;;;;;;;;5038387;28;20622;-54
2022/11/08 02:12:39;;;;;;;8.70;7.90;;;;;;;;;;5037256;28;20292;-54
2022/11/08 02:15:05;;;;;;;10.03;9.00;;;;;;;;;;5037340;28;20550;-55
2022/11/08 02:17:30;;;;;;;9.67;8.77;;;;;;;;;;5046682;28;20181;-55
2022/11/08 02:19:55;;;;;;;9.63;8.73;;;;;;;;;;5033971;28;20263;-54
2022/11/08 02:22:23;;;;;;;9.98;9.07;;;;;;;;;;5043528;28;20543;-54
2022/11/08 02:24:48;;;;;;;9.70;8.90;;;;;;;;;;5031488;28;20585;-54
2022/11/08 02:27:14;;;;;;;12.30;9.27;;;;;;;;;;5032805;28;20642;-54
2022/11/08 02:29:39;;;;;;;9.70;8.90;;;;;;;;;;5034834;28;20577;-54
2022/11/08 02:32:05;;;;;;;9.93;9.00;;;;;;;;;;5039596;28;20180;-55
2022/11/08 02:34:35;;;;;;;10.40;9.40;;;;;;;;;;5028828;28;20565;-54
2022/11/08 02:37:01;;;;;;;11.00;10.00;;;;;;;;;;5040585;28;20217;-55
2022/11/08 02:39:27;;;;;;;10.50;9.60;;;;;;;;;;5045386;28;20649;-53
2022/11/08 02:41:53;;;;;;;12.00;10.90;;;;;;;;;;5035760;28;20657;-55
2022/11/08 02:44:18;;;;;;;11.80;10.80;;;;;;;;;;5033475;28;20612;-54
2022/11/08 02:46:43;;;;;;;11.10;10.10;;;;;;;;;;5033868;28;20189;-55
2022/11/08 02:49:08;;;;;;;12.73;11.30;;;;;;;;;;5040329;28;20192;-53
2022/11/08 02:51:34;;;;;;;11.80;10.83;;;;;;;;;;5040369;28;20178;-54
2022/11/08 02:53:59;;;;;;;11.60;10.60;;;;;;;;;;5044104;28;20238;-53
2022/11/08 02:56:24;;;;;;;12.40;11.20;;;;;;;;;;5031615;28;20176;-54
2022/11/08 02:58:49;;;;;;;13.30;11.40;;;;;;;;;;5033937;28;20216;-54
2022/11/08 03:01:14;;;;;;;12.85;11.50;;;;;;;;;;5045639;28;20727;-54
2022/11/08 03:03:39;;;;;;;12.90;11.60;;;;;;;;;;5030385;28;20188;-54
2022/11/08 03:06:04;;;;;;;12.32;11.13;;;;;;;;;;5039745;28;20190;-54
2022/11/08 03:08:30;;;;;;;12.40;11.30;;;;;;;;;;5047677;28;20802;-55
2022/11/08 03:10:55;;;;;;;11.87;10.53;;;;;;;;;;5042720;28;20193;-55
2022/11/08 03:13:20;;;;;;;12.67;11.47;;;;;;;;;;5039278;28;20297;-54
2022/11/08 03:15:45;;;;;;;12.57;11.47;;;;;;;;;;5035460;28;20175;-54
2022/11/08 03:18:10;;;;;;;11.90;10.87;;;;;;;;;;5035832;28;20643;-54
2022/11/08 03:20:35;;;;;;;12.88;11.50;;;;;;;;;;5034014;28;20220;-54
2022/11/08 03:23:02;;;;;;;12.90;11.17;;;;;;;;;;5046559;28;20196;-55
2022/11/08 03:25:27;;;;;;;13.13;11.73;;;;;;;;;;5049193;28;20777;-54
2022/11/08 03:27:52;;;;;;;12.70;11.60;;;;;;;;;;5044600;28;20613;-55
2022/11/08 03:30:17;;;;;;;13.07;11.87;;;;;;;;;;5046057;28;20186;-55
2022/11/08 03:32:45;;;;;;;14.77;13.27;;;;;;;;;;5045597;28;20248;-53
2022/11/08 03:35:10;;;;;;;12.73;11.53;;;;;;;;;;5053498;28;20179;-54
2022/11/08 03:37:35;;;;;;;13.13;11.77;;;;;;;;;;5044525;28;20610;-53
2022/11/08 03:40:01;;;;;;;13.30;12.10;;;;;;;;;;5033021;28;20183;-54
2022/11/08 03:42:26;;;;;;;14.07;12.63;;;;;;;;;;5049323;28;20179;-54
2022/11/08 03:44:51;;;;;;;12.87;11.77;;;;;;;;;;5047521;28;20168;-53
2022/11/08 03:47:16;;;;;;;13.70;12.33;;;;;;;;;;5041970;28;20176;-53
2022/11/08 03:49:41;;;;;;;14.70;13.27;;;;;;;;;;5040605;28;20589;-54
2022/11/08 03:52:06;;;;;;;13.10;11.97;;;;;;;;;;5032938;28;20180;-54
2022/11/08 03:54:32;;;;;;;13.83;12.67;;;;;;;;;;5033703;28;20201;-54
2022/11/08 03:56:57;;;;;;;13.57;12.37;;;;;;;;;;5047045;28;20193;-54
2022/11/08 03:59:22;;;;;;;14.43;13.03;;;;;;;;;;5047631;28;20179;-54
2022/11/08 04:01:47;;;;;;;14.73;13.23;;;;;;;;;;5034023;28;20274;-55
2022/11/08 04:04:12;;;;;;;14.15;12.45;;;;;;;;;;5033318;28;20634;-55
2022/11/08 04:06:38;;;;;;;14.17;12.80;;;;;;;;;;5032891;28;20251;-55
2022/11/08 04:09:03;;;;;;;15.70;14.10;;;;;;;;;;5032991;28;20179;-54
2022/11/08 04:16:56;;;;;;;13.93;12.73;;;;;;;;;;5050273;28;20603;-54
2022/11/08 04:22:05;;;;;;;14.83;12.97;;;;;;;;;;5033913;28;20665;-55
2022/11/08 04:24:31;;;;;;;15.13;13.90;;;;;;;;;;5033138;28;20598;-55
2022/11/08 04:26:56;;;;;;;15.80;14.40;;;;;;;;;;5030786;28;20676;-55
2022/11/08 04:29:21;;;;;;;15.27;13.67;;;;;;;;;;5032503;28;20220;-55
2022/11/08 04:31:46;;;;;;;14.07;12.87;;;;;;;;;;5037689;28;20177;-54
2022/11/08 04:34:12;;;;;;;14.27;12.90;;;;;;;;;;5050437;28;20208;-56
2022/11/08 04:36:37;;;;;;;13.83;12.53;;;;;;;;;;5030412;28;20177;-54
2022/11/08 04:39:02;;;;;;;14.40;13.20;;;;;;;;;;5030423;28;20264;-55
2022/11/08 04:41:27;;;;;;;14.00;12.80;;;;;;;;;;5032385;28;20178;-54
2022/11/08 04:43:53;;;;;;;14.63;13.17;;;;;;;;;;5032585;28;20184;-54
2022/11/08 04:46:20;;;;;;;14.60;13.37;;;;;;;;;;5031956;28;20242;-55
2022/11/08 04:48:45;;;;;;;14.27;12.77;;;;;;;;;;5032269;28;20582;-54
2022/11/08 04:51:14;;;;;;;15.23;13.70;;;;;;;;;;5032660;28;20609;-54
2022/11/08 04:53:40;;;;;;;13.00;11.87;;;;;;;;;;5046721;28;20233;-55
2022/11/08 04:56:06;;;;;;;15.60;13.60;;;;;;;;;;5062740;28;20583;-55
2022/11/08 04:58:35;;;;;;;14.97;13.67;;;;;;;;;;5066556;28;20178;-55
2022/11/08 05:01:01;;;;;;;15.53;13.97;;;;;;;;;;5058970;28;21008;-55
2022/11/08 05:03:26;;;;;;;14.47;13.17;;;;;;;;;;5044041;28;20645;-55
2022/11/08 05:05:51;;;;;;;14.07;12.87;;;;;;;;;;5060799;28;20644;-54
2022/11/08 05:08:16;;;;;;;15.13;13.80;;;;;;;;;;5045168;28;20269;-54
2022/11/08 05:10:42;;;;;;;14.10;12.70;;;;;;;;;;5053708;28;20248;-55
2022/11/08 05:13:07;;;;;;;14.37;12.97;;;;;;;;;;5054513;28;20212;-54
2022/11/08 05:15:32;;;;;;;17.80;13.50;;;;;;;;;;5054143;28;20543;-55
2022/11/08 05:17:57;;;;;;;13.03;11.93;;;;;;;;;;5063621;28;20189;-55
2022/11/08 05:23:22;;;;;;;14.93;13.63;;;;;;;;;;5031428;28;20188;-55
2022/11/08 05:25:48;;;;;;;14.83;13.50;;;;;;;;;;5035822;28;20696;-54
2022/11/08 05:28:13;;;;;;;16.30;14.80;;;;;;;;;;5031802;28;20741;-54
2022/11/08 05:30:38;;;;;;;15.47;14.17;;;;;;;;;;5036042;28;20195;-54
2022/11/08 05:33:04;;;;;;;15.17;13.70;;;;;;;;;;5039872;28;20205;-55
2022/11/08 05:35:29;;;;;;;15.63;13.90;;;;;;;;;;5041686;28;20799;-54
2022/11/08 05:37:54;;;;;;;17.07;15.57;;;;;;;;;;5032505;28;20188;-55
2022/11/08 05:40:19;;;;;;;14.60;13.17;;;;;;;;;;5024103;28;20187;-55
2022/11/08 05:42:44;;;;;;;17.30;15.23;;;;;;;;;;5029035;28;20186;-55
2022/11/08 05:45:09;;;;;;;15.13;13.83;;;;;;;;;;5034437;28;20191;-55
2022/11/08 05:47:35;;;;;;;15.27;13.83;;;;;;;;;;5027201;28;20555;-55
2022/11/08 05:50:00;;;;;;;13.97;12.73;;;;;;;;;;5028178;28;20572;-55
2022/11/08 05:52:25;;;;;;;16.43;14.77;;;;;;;;;;5028096;28;20237;-58
2022/11/08 05:54:52;;;;;;;15.50;13.90;;;;;;;;;;5035135;28;20210;-57
2022/11/08 05:57:17;;;;;;;13.60;12.37;;;;;;;;;;5034806;28;20593;-56
2022/11/08 05:59:42;;;;;;;14.90;13.43;;;;;;;;;;5038971;28;20655;-57
2022/11/08 06:02:07;;;;;;;14.70;13.50;;;;;;;;;;5039170;28;20206;-57
2022/11/08 06:04:32;;;;;;;15.50;13.87;;;;;;;;;;5033991;28;20208;-57
2022/11/08 06:06:58;;;;;;;14.60;13.10;;;;;;;;;;5036270;28;20203;-57
2022/11/08 06:09:23;;;;;;;15.00;13.60;;;;;;;;;;5046259;28;20595;-58
2022/11/08 06:11:48;;;;;;;15.60;14.00;;;;;;;;;;5032488;28;20190;-58
2022/11/08 06:14:13;;;;;;;16.07;14.30;;;;;;;;;;5028763;28;20775;-58
2022/11/08 06:16:38;;;;;;;14.90;13.60;;;;;;;;;;5034385;28;20691;-57
2022/11/08 06:19:04;;;;;;;15.05;13.70;;;;;;;;;;5035490;28;20186;-57
2022/11/08 06:21:29;;;;;;;15.37;13.97;;;;;;;;;;5036214;28;20186;-57
2022/11/08 06:23:54;;;;;;;14.20;12.70;;;;;;;;;;5038405;28;20568;-58
2022/11/08 06:26:20;;;;;;;16.03;14.80;;;;;;;;;;5049053;28;20173;-58
2022/11/08 06:28:45;;;;;;;15.47;14.07;;;;;;;;;;5046511;28;20227;-58
2022/11/08 06:31:11;;;;;;;14.77;13.37;;;;;;;;;;5049845;28;20593;-58
2022/11/08 06:33:36;;;;;;;16.20;14.57;;;;;;;;;;5048657;28;20208;-58
2022/11/08 06:36:01;;;;;;;15.53;14.07;;;;;;;;;;5046987;28;20228;-58
2022/11/08 06:38:27;;;;;;;14.43;13.10;;;;;;;;;;5048045;28;20176;-58
2022/11/08 06:40:52;;;;;;;14.87;13.67;;;;;;;;;;5050206;28;20174;-58
2022/11/08 06:43:17;;;;;;;14.70;13.30;;;;;;;;;;5050058;28;20177;-59
2022/11/08 06:45:42;;;;;;;15.13;13.67;;;;;;;;;;5047282;28;20176;-57
2022/11/08 06:48:08;;;;;;;16.80;13.68;;;;;;;;;;5050093;28;20266;-58
2022/11/08 06:50:34;;;;;;;14.83;13.30;;;;;;;;;;5040013;28;20597;-57
2022/11/08 06:53:00;;;;;;;15.60;13.97;;;;;;;;;;5034925;28;20590;-57
2022/11/08 06:55:26;;;;;;;17.13;15.63;;;;;;;;;;5039999;28;21148;-56
2022/11/08 06:57:51;;;;;;;15.50;14.20;;;;;;;;;;5026938;28;20623;-57
2022/11/08 07:00:16;;;;;;;14.80;13.47;;;;;;;;;;5039028;28;20186;-56
2022/11/08 07:02:43;;;;;;;13.90;12.70;;;;;;;;;;5039102;28;20190;-56
2022/11/08 07:05:08;;;;;;;16.93;15.33;;;;;;;;;;5037362;28;20181;-55
2022/11/08 07:07:33;;;;;;;14.80;13.60;;;;;;;;;;5034598;28;21044;-55
2022/11/08 07:09:58;;;;;;;15.30;13.82;;;;;;;;;;5036587;28;20185;-55
2022/11/08 07:12:23;;;;;;;15.77;14.37;;;;;;;;;;5034625;28;20210;-54
2022/11/08 07:14:49;;;;;;;14.80;13.47;;;;;;;;;;5050140;28;20179;-55
2022/11/08 07:17:14;;;;;;;15.37;14.13;;;;;;;;;;5050027;28;20184;-54
2022/11/08 07:19:40;;;;;;;15.70;14.40;;;;;;;;;;5050214;28;20258;-54
2022/11/08 07:22:05;;;;;;;15.60;14.10;;;;;;;;;;5049971;28;20245;-55
2022/11/08 07:24:30;;;;;;;15.73;14.30;;;;;;;;;;5034622;28;20190;-54
2022/11/08 07:26:55;;;;;;;14.88;13.68;;;;;;;;;;5030461;28;20654;-54
2022/11/08 07:29:20;;;;;;;17.20;15.70;;;;;;;;;;5041929;28;20261;-54
2022/11/08 07:31:46;;;;;;;15.57;14.00;;;;;;;;;;5036218;28;20520;-54
2022/11/08 07:34:11;;;;;;;15.73;14.20;;;;;;;;;;5037780;28;20204;-54
2022/11/08 07:36:36;;;;;;;14.90;13.40;;;;;;;;;;5049413;28;20190;-55
2022/11/08 07:39:01;;;;;;;15.10;13.90;;;;;;;;;;5039493;28;20184;-54
2022/11/08 07:41:26;;;;;;;14.87;13.37;;;;;;;;;;5029925;28;20188;-55
2022/11/08 07:43:51;;;;;;;15.00;13.80;;;;;;;;;;5029554;28;20187;-54
2022/11/08 07:46:17;;;;;;;14.00;12.90;;;;;;;;;;5029761;28;20169;-54
2022/11/08 07:48:42;;;;;;;15.23;13.93;;;;;;;;;;5030067;28;20335;-54
2022/11/08 07:51:07;;;;;;;15.07;13.60;;;;;;;;;;5030047;28;20226;-54
2022/11/08 07:53:32;;;;;;;15.60;14.30;;;;;;;;;;5029324;28;20245;-55
2022/11/08 07:55:57;;;;;;;16.47;14.90;;;;;;;;;;5037309;28;20173;-54
2022/11/08 07:58:23;;;;;;;15.30;13.93;;;;;;;;;;5049666;28;20173;-54
2022/11/08 08:00:48;;;;;;;14.77;13.37;;;;;;;;;;5051123;28;20566;-55
2022/11/08 08:03:14;;;;;;;15.47;14.20;;;;;;;;;;5053210;28;20172;-54
2022/11/08 08:05:41;;;;;;;15.33;14.00;;;;;;;;;;5050839;28;20654;-53
2022/11/08 08:08:06;;;;;;;14.53;13.43;;;;;;;;;;5052946;28;20644;-54
2022/11/08 08:10:31;;;;;;;14.50;13.30;;;;;;;;;;5050578;28;20588;-55
2022/11/08 08:12:57;;;;;;;15.27;14.07;;;;;;;;;;5052698;28;20209;-55
2022/11/08 08:15:23;;;;;;;15.80;14.50;;;;;;;;;;5046417;28;20177;-55
2022/11/08 08:17:48;;;;;;;14.37;13.10;;;;;;;;;;5045167;28;20187;-55
2022/11/08 08:20:13;;;;;;;14.97;13.67;;;;;;;;;;5052564;28;20601;-56
2022/11/08 08:22:42;;;;;;;13.90;12.73;;;;;;;;;;5052763;28;20178;-56
2022/11/08 08:25:08;;;;;;;15.10;13.60;;;;;;;;;;5053048;28;20264;-55
2022/11/08 08:27:33;;;;;;;15.00;13.50;;;;;;;;;;5036178;28;21183;-56
2022/11/08 08:29:58;;;;;;;13.90;12.80;;;;;;;;;;5051712;28;20184;-54
2022/11/08 08:32:23;;;;;;;14.57;13.23;;;;;;;;;;5052487;28;20164;-55
2022/11/08 08:34:48;;;;;;;14.07;12.98;;;;;;;;;;5052853;28;20191;-54
2022/11/08 08:37:14;;;;;;;14.63;13.27;;;;;;;;;;5048650;28;20172;-54
2022/11/08 08:39:39;;;;;;;14.20;12.80;;;;;;;;;;5052351;28;20174;-55
2022/11/08 08:42:05;;;;;;;14.70;13.37;;;;;;;;;;5052392;28;20181;-55
2022/11/08 08:44:30;;;;;;;13.23;11.93;;;;;;;;;;5050785;28;20428;-55
2022/11/08 08:46:55;;;;;;;14.33;13.03;;;;;;;;;;5042424;28;20184;-54
2022/11/08 08:49:20;;;;;;;13.07;12.07;;;;;;;;;;5032428;28;20181;-55
2022/11/08 08:51:45;;;;;;;12.88;11.73;;;;;;;;;;5047563;28;20181;-54
2022/11/08 08:54:13;;;;;;;13.50;12.43;;;;;;;;;;5052019;28;20225;-54
2022/11/08 08:56:38;;;;;;;13.97;12.67;;;;;;;;;;5052180;28;20248;-54
2022/11/08 08:59:03;;;;;;;12.45;11.43;;;;;;;;;;5050618;28;20655;-55
2022/11/08 09:01:29;;;;;;;12.77;11.73;;;;;;;;;;5048526;28;20489;-55
2022/11/08 09:03:54;;;;;;;11.73;10.70;;;;;;;;;;5052269;28;20541;-56
2022/11/08 09:06:19;;;;;;;12.63;11.60;;;;;;;;;;5052435;28;20210;-55
2022/11/08 09:08:44;;;;;;;12.40;11.30;;;;;;;;;;5051689;28;20281;-56
2022/11/08 09:11:09;;;;;;;11.90;10.87;;;;;;;;;;5052221;28;20178;-55
2022/11/08 09:13:34;;;;;;;11.90;10.73;;;;;;;;;;5051545;28;20198;-54
2022/11/08 09:16:01;;;;;;;11.43;10.53;;;;;;;;;;5052003;28;20163;-53
2022/11/08 09:18:27;;;;;;;11.70;10.50;;;;;;;;;;5051560;28;20170;-53
2022/11/08 09:20:54;;;;;;;11.90;10.90;;;;;;;;;;5051612;28;20682;-55
2022/11/08 09:23:20;;;;;;;11.07;10.07;;;;;;;;;;5051664;28;20662;-55
2022/11/08 09:25:45;;;;;;;11.73;10.73;;;;;;;;;;5051773;28;20684;-54
2022/11/08 09:28:10;;;;;;;11.30;10.30;;;;;;;;;;5051699;28;20177;-55
2022/11/08 09:30:35;;;;;;;9.90;9.10;;;;;;;;;;5051285;28;20173;-54
2022/11/08 09:33:00;;;;;;;10.63;9.73;;;;;;;;;;5051527;28;20207;-55
2022/11/08 09:35:26;;;;;;;10.77;9.87;;;;;;;;;;5051434;28;20263;-55
2022/11/08 09:37:51;;;;;;;11.20;10.00;;;;;;;;;;5051560;28;20270;-54
2022/11/08 09:40:17;;;;;;;10.77;9.77;;;;;;;;;;5031085;28;20179;-56
2022/11/08 09:42:52;;;;;;;10.37;9.37;;;;;;;;;;5031128;28;20175;-55
2022/11/08 09:45:20;;;;;;;11.80;9.87;;;;;;;;;;5031313;28;21133;-55
2022/11/08 09:47:47;;;;;;;10.80;9.90;;;;;;;;;;5031585;28;20598;-54
2022/11/08 09:50:32;;;;;;;10.63;9.73;;;;;;;;;;5030557;28;20619;-55
2022/11/08 09:53:20;;;;;;;10.40;9.40;;;;;;;;;;5039807;28;20794;-54
2022/11/08 09:55:51;;;;;;;10.93;10.07;;;;;;;;;;5040444;28;21241;-54
2022/11/08 09:58:20;;;;;;;10.40;9.30;;;;;;;;;;5051004;28;20590;-54
2022/11/08 10:00:49;;;;;;;10.20;9.33;;;;;;;;;;5046476;28;20600;-55
2022/11/08 10:03:15;;;;;;;9.20;8.40;;;;;;;;;;5050816;28;20603;-54
2022/11/08 10:05:42;;;;;;;9.20;8.50;;;;;;;;;;5051046;28;20594;-55
2022/11/08 10:08:07;;;;;;;9.07;8.37;;;;;;;;;;5051067;28;20182;-55
2022/11/08 10:10:54;;;;;;;9.23;8.52;;;;;;;;;;5050731;28;20628;-54
2022/11/08 10:13:38;;;;;;;9.90;9.10;;;;;;;;;;5048317;28;20218;-55
2022/11/08 10:16:15;;;;;;;9.23;8.33;;;;;;;;;;5050724;28;20671;-54
2022/11/08 10:18:40;;;;;;;8.10;7.40;;;;;;;;;;5050582;28;21215;-54
2022/11/08 10:21:24;;;;;;;7.03;6.33;;;;;;;;;;5050435;28;20671;-54
2022/11/08 10:24:02;;;;;;;6.73;6.23;;;;;;;;;;5030290;28;20642;-54
2022/11/08 10:26:34;;;;;;;7.43;6.57;;;;;;;;;;5030437;28;20602;-54
2022/11/08 10:29:05;;;;;;;6.70;6.10;;;;;;;;;;5030629;28;20595;-54
2022/11/08 10:31:34;;;;;;;6.57;5.97;;;;;;;;;;5030037;28;20688;-54
2022/11/08 10:34:00;;;;;;;8.10;5.60;;;;;;;;;;5030223;28;20735;-54
2022/11/08 10:36:43;;;;;;;6.40;5.80;;;;;;;;;;5030669;28;20579;-54
2022/11/08 10:39:24;;;;;;;5.80;5.20;;;;;;;;;;5030479;28;20581;-54
2022/11/08 10:41:52;;;;;;;6.37;5.83;;;;;;;;;;5030202;28;20572;-54
2022/11/08 10:44:19;;;;;;;6.50;5.60;;;;;;;;;;5030694;28;20628;-53
2022/11/08 10:46:58;;;;;;;5.83;4.90;;;;;;;;;;5030099;28;20600;-54
2022/11/08 10:49:39;;;;;;;6.70;4.83;;;;;;;;;;5029968;28;21182;-54
2022/11/08 10:52:10;;;;;;;5.33;4.57;;;;;;;;;;5030028;28;21198;-54
2022/11/08 10:54:51;;;;;;;4.67;4.27;;;;;;;;;;5029923;28;20662;-54
2022/11/08 10:57:25;;;;;;;4.03;3.70;;;;;;;;;;5028154;28;20663;-54
2022/11/08 10:59:50;;;;;;;5.27;3.80;;;;;;;;;;5029620;28;20592;-54
2022/11/08 11:02:17;;;;;;;4.10;3.80;;;;;;;;;;5037278;28;20744;-55
2022/11/08 11:04:42;;;;;;;5.53;3.60;;;;;;;;;;5044919;28;20237;-55
2022/11/08 11:07:28;;;;;;;3.70;3.33;;;;;;;;;;5050184;28;20999;-55
2022/11/08 11:09:53;;;;;;;3.10;2.90;;;;;;;;;;5049945;28;20225;-55
2022/11/08 11:12:18;;;;;;;3.00;2.70;;;;;;;;;;5049875;28;20610;-55
2022/11/08 11:14:44;;;;;;;3.10;2.80;;;;;;;;;;5045963;28;20304;-55
2022/11/08 11:17:16;;;;;;;3.13;2.57;;;;;;;;;;5050241;28;20171;-55
2022/11/08 11:19:43;;;;;;;3.20;2.30;;;;;;;;;;5047973;28;20175;-55
2022/11/08 11:22:08;;;;;;;2.57;2.37;;;;;;;;;;5049800;28;20571;-55
2022/11/08 11:24:34;;;;;;;2.40;2.20;;;;;;;;;;5048759;28;20571;-55
2022/11/08 11:27:06;;;;;;;2.90;2.20;;;;;;;;;;5030329;28;20207;-55
2022/11/08 11:29:32;;;;;;;3.10;2.90;;;;;;;;;;5030065;28;20549;-56
2022/11/08 11:32:18;;;;;;;4.03;2.50;;;;;;;;;;5029752;28;20569;-56
2022/11/08 11:34:54;;;;;;;2.90;2.40;;;;;;;;;;5029681;28;20654;-54
2022/11/08 11:37:24;;;;;;;2.83;2.57;;;;;;;;;;5048531;28;20663;-54
2022/11/08 11:39:49;;;;;;;2.50;2.30;;;;;;;;;;5038271;28;20597;-54
2022/11/08 11:42:17;;;;;;;2.90;2.70;;;;;;;;;;5033670;28;20583;-54
2022/11/08 11:45:01;;;;;;;2.80;2.60;;;;;;;;;;5033525;28;20204;-54
2022/11/08 11:47:30;;;;;;;2.63;2.40;;;;;;;;;;5034348;28;20620;-55
2022/11/08 11:49:59;;;;;;;5.33;3.03;;;;;;;;;;5033055;28;20621;-55
2022/11/08 11:52:24;;;;;;;3.03;2.80;;;;;;;;;;5033254;28;20648;-55
2022/11/08 11:54:49;;;;;;;3.13;2.70;;;;;;;;;;5033311;28;21200;-55
2022/11/08 11:57:31;;;;;;;4.30;3.13;;;;;;;;;;5033573;28;20172;-55
2022/11/08 11:59:56;;;;;;;3.53;3.10;;;;;;;;;;5039892;28;20681;-54
2022/11/08 12:02:27;;;;;;;3.38;3.08;;;;;;;;;;5053048;28;20579;-54
2022/11/08 12:05:12;;;;;;;3.17;2.90;;;;;;;;;;5052224;28;20187;-55
2022/11/08 12:07:42;;;;;;;2.57;2.37;;;;;;;;;;5053008;28;20585;-55
2022/11/08 12:10:33;;;;;;;2.30;2.10;;;;;;;;;;5050986;28;20621;-55
2022/11/08 12:13:08;;;;;;;3.60;2.13;;;;;;;;;;5051563;28;21073;-54
2022/11/08 12:15:51;;;;;;;3.90;2.33;;;;;;;;;;5051507;28;20700;-55
2022/11/08 12:18:28;;;;;;;3.40;2.20;;;;;;;;;;5052791;28;20573;-54
2022/11/08 12:21:05;;;;;;;3.17;2.83;;;;;;;;;;5044107;28;20614;-54
2022/11/08 12:23:39;;;;;;;3.03;2.73;;;;;;;;;;5033013;28;20558;-55
2022/11/08 12:26:13;;;;;;;3.40;2.97;;;;;;;;;;5051699;28;20621;-55
2022/11/08 12:28:44;;;;;;;3.63;3.30;;;;;;;;;;5052737;28;20635;-54
2022/11/08 12:31:19;;;;;;;4.40;3.13;;;;;;;;;;5041754;28;20940;-54
2022/11/08 12:34:03;;;;;;;3.67;3.37;;;;;;;;;;5032484;28;20688;-55
2022/11/08 12:36:43;;;;;;;11.00;4.10;;;;;;;;;;5033011;28;20597;-54
2022/11/08 12:39:15;;;;;;;6.73;3.20;;;;;;;;;;5032678;28;20649;-54
2022/11/08 12:41:46;;;;;;;4.53;3.10;;;;;;;;;;5034414;28;20622;-54
2022/11/08 12:44:34;;;;;;;3.60;3.20;;;;;;;;;;5032822;28;20729;-55
2022/11/08 12:47:00;;;;;;;4.97;3.10;;;;;;;;;;5032107;28;20576;-54
2022/11/08 12:49:44;;;;;;;5.93;2.97;;;;;;;;;;5032429;28;20582;-54
2022/11/08 12:52:35;;;;;;;3.50;3.20;;;;;;;;;;5032121;28;20275;-54
2022/11/08 12:55:01;;;;;;;3.80;3.10;;;;;;;;;;5046301;28;20608;-55
2022/11/08 12:57:27;;;;;;;5.33;3.60;;;;;;;;;;5051941;28;20602;-55
2022/11/08 13:00:13;;;;;;;4.50;3.80;;;;;;;;;;5051929;28;20572;-55
2022/11/08 13:02:39;;;;;;;4.97;3.67;;;;;;;;;;5044346;28;20211;-54
2022/11/08 13:05:11;;;;;;;13.10;4.00;;;;;;;;;;5032397;28;20583;-54
2022/11/08 13:07:37;;;;;;;3.60;3.40;;;;;;;;;;5032302;28;20637;-54
2022/11/08 13:10:29;;;;;;;4.57;3.72;;;;;;;;;;5031672;28;20591;-53
2022/11/08 13:12:58;;;;;;;5.03;3.33;;;;;;;;;;5032421;28;20223;-54
2022/11/08 13:15:24;;;;;;;4.27;3.87;;;;;;;;;;5032122;28;20580;-54
2022/11/08 13:18:10;;;;;;;9.87;4.40;;;;;;;;;;5032016;28;20665;-56
2022/11/08 13:20:37;;;;;;;4.00;3.70;;;;;;;;;;5031388;28;20569;-61
2022/11/08 13:23:05;;;;;;;4.50;4.17;;;;;;;;;;5031093;28;20609;-56
2022/11/08 13:25:32;;;;;;;6.10;4.50;;;;;;;;;;5032295;28;20614;-55
2022/11/08 13:28:06;;;;;;;5.30;4.70;;;;;;;;;;5031603;28;20579;-56
2022/11/08 13:30:34;;;;;;;6.63;4.43;;;;;;;;;;5032152;28;20558;-56
2022/11/08 13:33:13;;;;;;;5.07;4.50;;;;;;;;;;5031159;28;20653;-55
2022/11/08 13:35:46;;;;;;;5.03;4.53;;;;;;;;;;5047943;28;21262;-54
2022/11/08 13:38:14;;;;;;;5.40;4.90;;;;;;;;;;5050037;28;20651;-55
2022/11/08 13:40:44;;;;;;;5.40;4.90;;;;;;;;;;5051116;28;20589;-55
2022/11/08 13:43:23;;;;;;;5.00;4.60;;;;;;;;;;5049705;28;20586;-55
2022/11/08 13:45:49;;;;;;;6.17;5.27;;;;;;;;;;5051778;28;20581;-55
2022/11/08 13:48:23;;;;;;;6.97;5.57;;;;;;;;;;5034605;28;20620;-55
2022/11/08 13:50:55;;;;;;;7.63;7.03;;;;;;;;;;5036284;28;20183;-55
2022/11/08 13:53:23;;;;;;;7.97;7.17;;;;;;;;;;5048980;28;21300;-55
2022/11/08 13:55:50;;;;;;;7.60;6.97;;;;;;;;;;5051066;28;20580;-55
2022/11/08 13:58:28;;;;;;;8.13;6.80;;;;;;;;;;5050030;28;20639;-55
2022/11/08 14:00:53;;;;;;;8.70;7.90;;;;;;;;;;5042383;28;20625;-55
2022/11/08 14:03:33;;;;;;;8.40;7.70;;;;;;;;;;5051067;28;20560;-55
2022/11/08 14:06:04;;;;;;;12.40;8.17;;;;;;;;;;5050881;28;20170;-55
2022/11/08 14:08:39;;;;;;;8.87;7.60;;;;;;;;;;5050581;28;20597;-54
2022/11/08 14:11:26;;;;;;;8.10;7.50;;;;;;;;;;5046663;28;20614;-54
2022/11/08 14:14:01;;;;;;;9.80;7.80;;;;;;;;;;5041406;28;20687;-55
2022/11/08 14:16:29;;;;;;;8.57;7.87;;;;;;;;;;5050939;28;20951;-54
2022/11/08 14:19:04;;;;;;;8.63;7.77;;;;;;;;;;5050491;28;20585;-55
2022/11/08 14:21:29;;;;;;;8.70;7.40;;;;;;;;;;5050631;28;20577;-54
2022/11/08 14:23:55;;;;;;;7.87;7.17;;;;;;;;;;5044622;28;20986;-54
2022/11/08 14:26:21;;;;;;;8.70;7.90;;;;;;;;;;5050875;28;20712;-54
2022/11/08 14:28:47;;;;;;;8.30;7.50;;;;;;;;;;5050707;28;20179;-55
2022/11/08 14:31:25;;;;;;;8.50;7.70;;;;;;;;;;5050270;28;20667;-55
2022/11/08 14:33:51;;;;;;;7.77;6.97;;;;;;;;;;5050205;28;20687;-55
2022/11/08 14:36:17;;;;;;;7.00;6.17;;;;;;;;;;5040922;28;20667;-55
2022/11/08 14:38:49;;;;;;;8.13;7.33;;;;;;;;;;5047599;28;20208;-55
2022/11/08 14:41:17;;;;;;;7.53;6.83;;;;;;;;;;5047338;28;20649;-55
2022/11/08 14:43:43;;;;;;;8.87;8.07;;;;;;;;;;5050449;28;20628;-55
2022/11/08 14:46:10;;;;;;;7.93;7.30;;;;;;;;;;5048105;28;20677;-55
2022/11/08 14:48:35;;;;;;;8.80;8.00;;;;;;;;;;5050632;28;20620;-55
2022/11/08 14:51:01;;;;;;;8.07;7.43;;;;;;;;;;5034111;28;20617;-55
2022/11/08 14:53:27;;;;;;;9.23;8.43;;;;;;;;;;5030236;28;20723;-55
2022/11/08 14:56:19;;;;;;;9.70;8.80;;;;;;;;;;5031085;28;21193;-56